createdAt,value
2018-11-28T00:01:00.404Z,24.32
2018-11-28T00:03:27.681Z,21.35
2018-11-28T00:05:55.010Z,22.58
2018-11-28T00:08:22.269Z,23.38
2018-11-28T00:10:50.093Z,21.12
2018-11-28T00:13:17.783Z,24.40
2018-11-28T00:15:45.065Z,27.10
2018-11-28T00:18:12.799Z,24.90
2018-11-28T00:20:40.391Z,22.10
2018-11-28T00:23:07.933Z,22.02
2018-11-28T00:25:35.448Z,22.75
2018-11-28T00:28:02.953Z,24.40
2018-11-28T00:30:30.510Z,25.02
2018-11-28T00:32:58.066Z,25.35
2018-11-28T00:35:25.576Z,23.90
2018-11-28T00:37:53.065Z,23.85
2018-11-28T00:40:21.507Z,25.77
2018-11-28T00:42:49.080Z,22.75
2018-11-28T00:45:22.199Z,20.60
2018-11-28T00:47:49.566Z,24.07
2018-11-28T00:50:19.001Z,23.73
2018-11-28T00:52:46.621Z,20.35
2018-11-28T00:55:14.942Z,21.48
2018-11-28T00:57:42.444Z,25.95
2018-11-28T01:00:16.625Z,25.20
2018-11-28T01:02:44.209Z,23.60
2018-11-28T01:05:12.281Z,21.85
2018-11-28T01:07:40.059Z,24.82
2018-11-28T01:10:09.744Z,20.65
2018-11-28T01:12:37.253Z,21.65
2018-11-28T01:15:05.732Z,23.75
2018-11-28T01:17:33.298Z,24.32
2018-11-28T01:20:00.869Z,26.82
2018-11-28T01:22:28.421Z,24.65
2018-11-28T01:24:56.546Z,25.15
2018-11-28T01:27:24.046Z,22.55
2018-11-28T01:29:54.676Z,21.95
2018-11-28T01:32:22.128Z,25.12
2018-11-28T01:34:49.707Z,21.73
2018-11-28T01:37:17.179Z,22.07
2018-11-28T01:39:44.672Z,26.35
2018-11-28T01:42:12.213Z,23.20
2018-11-28T01:44:39.735Z,22.67
2018-11-28T01:47:07.300Z,24.15
2018-11-28T01:49:34.768Z,25.10
2018-11-28T01:52:02.343Z,26.40
2018-11-28T01:54:29.804Z,21.50
2018-11-28T01:56:57.344Z,27.07
2018-11-28T01:59:24.804Z,24.77
2018-11-28T02:01:52.301Z,25.35
2018-11-28T02:04:19.765Z,23.73
2018-11-28T02:06:47.324Z,25.10
2018-11-28T02:09:14.780Z,27.60
2018-11-28T02:11:42.249Z,25.62
2018-11-28T02:14:09.697Z,24.07
2018-11-28T02:16:37.150Z,27.45
2018-11-28T02:19:04.871Z,21.48
2018-11-28T02:21:32.498Z,22.35
2018-11-28T02:23:59.954Z,22.73
2018-11-28T02:26:27.449Z,25.80
2018-11-28T02:28:57.598Z,27.10
2018-11-28T02:31:25.435Z,26.30
2018-11-28T02:33:52.712Z,25.70
2018-11-28T02:36:19.987Z,25.62
2018-11-28T02:38:47.609Z,23.18
2018-11-28T02:41:15.074Z,21.80
2018-11-28T02:43:42.549Z,26.52
2018-11-28T02:46:21.615Z,28.62
2018-11-28T02:48:49.114Z,25.45
2018-11-28T02:51:16.605Z,23.22
2018-11-28T02:53:43.871Z,28.07
2018-11-28T02:56:11.454Z,23.83
2018-11-28T02:58:38.926Z,25.43
2018-11-28T03:01:06.694Z,22.85
2018-11-28T03:03:34.198Z,25.40
2018-11-28T03:06:01.681Z,25.05
2018-11-28T03:08:29.166Z,27.15
2018-11-28T03:10:56.626Z,25.35
2018-11-28T03:13:24.106Z,25.05
2018-11-28T03:15:53.834Z,24.67
2018-11-28T03:18:22.218Z,30.62
2018-11-28T03:20:49.923Z,28.12
2018-11-28T03:23:17.415Z,28.67
2018-11-28T03:25:44.920Z,28.00
2018-11-28T03:28:13.251Z,25.10
2018-11-28T03:30:40.731Z,28.32
2018-11-28T03:33:08.219Z,27.58
2018-11-28T03:35:35.751Z,27.55
2018-11-28T03:38:03.246Z,29.30
2018-11-28T03:40:30.919Z,26.95
2018-11-28T03:42:58.459Z,22.93
2018-11-28T03:45:31.668Z,23.42
2018-11-28T03:47:58.962Z,26.00
2018-11-28T03:50:26.528Z,28.80
2018-11-28T03:52:53.842Z,32.83
2018-11-28T03:55:21.379Z,29.45
2018-11-28T03:57:48.660Z,29.52
2018-11-28T04:00:19.211Z,28.40
2018-11-28T04:02:47.083Z,26.87
2018-11-28T04:05:14.706Z,26.35
2018-11-28T04:07:42.203Z,36.17
2018-11-28T04:10:11.589Z,30.75
2018-11-28T04:12:39.561Z,28.85
2018-11-28T04:15:11.478Z,26.85
2018-11-28T04:17:38.967Z,22.73
2018-11-28T04:20:09.361Z,26.48
2018-11-28T04:22:36.854Z,28.23
2018-11-28T04:25:05.305Z,27.45
2018-11-28T04:27:32.675Z,27.37
2018-11-28T04:30:00.174Z,26.35
2018-11-28T04:32:27.670Z,23.80
2018-11-28T04:34:55.180Z,25.15
2018-11-28T04:37:23.076Z,28.57
2018-11-28T04:39:50.679Z,26.62
2018-11-28T04:42:18.161Z,24.87
2018-11-28T04:44:45.778Z,24.63
2018-11-28T04:47:14.147Z,25.45
2018-11-28T04:49:40.852Z,24.75
2018-11-28T04:52:08.371Z,27.42
2018-11-28T04:54:35.825Z,26.42
2018-11-28T04:57:03.549Z,28.23
2018-11-28T04:59:31.060Z,28.10
2018-11-28T05:01:58.569Z,23.45
2018-11-28T05:04:37.593Z,25.45
2018-11-28T05:07:24.974Z,27.60
2018-11-28T05:09:52.853Z,24.87
2018-11-28T05:12:20.626Z,24.67
2018-11-28T05:14:48.145Z,28.52
2018-11-28T05:17:15.658Z,27.15
2018-11-28T05:19:43.170Z,25.70
2018-11-28T05:22:10.661Z,25.85
2018-11-28T05:24:38.120Z,27.22
2018-11-28T05:27:05.819Z,29.77
2018-11-28T05:29:33.312Z,26.95
2018-11-28T05:32:02.350Z,27.37
2018-11-28T05:34:29.830Z,25.00
2018-11-28T05:36:57.368Z,23.92
2018-11-28T05:39:24.842Z,25.80
2018-11-28T05:41:52.325Z,26.55
2018-11-28T05:44:19.881Z,22.45
2018-11-28T05:46:47.552Z,24.63
2018-11-28T05:49:15.254Z,26.20
2018-11-28T05:51:42.583Z,25.20
2018-11-28T05:54:10.065Z,26.42
2018-11-28T05:56:37.585Z,26.07
2018-11-28T05:59:06.411Z,26.95
2018-11-28T06:01:33.970Z,25.48
2018-11-28T06:04:01.461Z,25.50
2018-11-28T06:06:29.932Z,25.48
2018-11-28T06:08:57.409Z,26.33
2018-11-28T06:11:24.865Z,27.70
2018-11-28T06:13:52.417Z,24.43
2018-11-28T06:16:19.943Z,23.65
2018-11-28T06:18:47.477Z,23.55
2018-11-28T06:21:14.946Z,26.65
2018-11-28T06:23:42.511Z,25.15
2018-11-28T06:26:10.079Z,21.37
2018-11-28T06:28:37.624Z,22.37
2018-11-28T06:31:05.504Z,24.63
2018-11-28T06:33:33.271Z,22.25
2018-11-28T06:36:00.784Z,19.17
2018-11-28T06:38:28.266Z,22.30
2018-11-28T06:40:55.982Z,21.00
2018-11-28T06:43:23.505Z,26.12
2018-11-28T06:45:51.163Z,23.25
2018-11-28T06:48:18.673Z,23.25
2018-11-28T06:50:46.431Z,22.82
2018-11-28T06:53:13.940Z,23.83
2018-11-28T06:55:41.565Z,21.65
2018-11-28T06:58:09.075Z,23.98
2018-11-28T07:00:37.555Z,21.20
2018-11-28T07:03:05.228Z,24.45
2018-11-28T07:05:32.803Z,23.30
2018-11-28T07:08:01.767Z,24.82
2018-11-28T07:10:29.544Z,26.55
2018-11-28T07:12:57.045Z,20.72
2018-11-28T07:15:25.024Z,22.65
2018-11-28T07:17:52.553Z,23.85
2018-11-28T07:20:20.205Z,23.22
2018-11-28T07:22:47.886Z,23.47
2018-11-28T07:25:17.141Z,21.60
2018-11-28T07:27:45.700Z,25.97
2018-11-28T07:30:19.752Z,25.35
2018-11-28T07:32:48.030Z,22.17
2018-11-28T07:35:15.581Z,24.50
2018-11-28T07:37:43.212Z,25.43
2018-11-28T07:40:20.568Z,24.80
2018-11-28T07:42:55.129Z,20.37
2018-11-28T07:45:22.465Z,25.95
2018-11-28T07:47:50.757Z,24.12
2018-11-28T07:50:18.126Z,24.32
2018-11-28T07:52:45.420Z,25.95
2018-11-28T07:55:12.822Z,21.82
2018-11-28T07:57:40.153Z,23.60
2018-11-28T08:00:10.326Z,27.22
2018-11-28T08:02:37.746Z,23.12
2018-11-28T08:05:08.518Z,28.15
2018-11-28T08:07:35.868Z,28.35
2018-11-28T08:10:03.478Z,25.45
2018-11-28T08:12:30.768Z,24.90
2018-11-28T08:14:58.067Z,26.65
2018-11-28T08:17:25.361Z,23.22
2018-11-28T08:19:52.689Z,25.05
2018-11-28T08:22:20.210Z,24.05
2018-11-28T08:24:47.541Z,23.05
2018-11-28T08:27:16.026Z,24.50
2018-11-28T08:29:43.225Z,23.67
2018-11-28T08:32:10.530Z,24.65
2018-11-28T08:34:37.849Z,22.62
2018-11-28T08:37:05.531Z,22.15
2018-11-28T08:39:32.873Z,26.15
2018-11-28T08:42:00.242Z,25.95
2018-11-28T08:44:27.556Z,20.85
2018-11-28T08:46:54.946Z,21.93
2018-11-28T08:49:22.293Z,23.75
2018-11-28T08:51:49.595Z,23.40
2018-11-28T08:54:16.953Z,21.95
2018-11-28T08:56:44.266Z,23.32
2018-11-28T08:59:11.745Z,27.80
2018-11-28T09:01:39.022Z,22.77
2018-11-28T09:04:06.541Z,19.57
2018-11-28T09:06:35.774Z,25.52
2018-11-28T09:09:04.189Z,25.43
2018-11-28T09:11:31.514Z,23.25
2018-11-28T09:14:04.261Z,21.85
2018-11-28T09:16:26.123Z,23.60
2018-11-28T09:21:25.932Z,21.27
2018-11-28T09:23:53.272Z,22.73
2018-11-28T09:26:20.552Z,21.55
2018-11-28T09:28:47.906Z,19.35
2018-11-28T09:31:15.765Z,23.95
2018-11-28T09:33:47.046Z,22.00
2018-11-28T09:36:14.343Z,20.27
2018-11-28T09:38:41.630Z,19.57
2018-11-28T09:41:08.922Z,19.10
2018-11-28T09:43:36.301Z,20.60
2018-11-28T09:46:05.186Z,17.10
2018-11-28T09:48:35.383Z,22.80
2018-11-28T09:51:02.693Z,23.52
2018-11-28T09:53:29.981Z,21.62
2018-11-28T09:55:57.530Z,20.05
2018-11-28T09:58:24.805Z,20.68
2018-11-28T10:00:57.065Z,21.23
2018-11-28T10:03:24.367Z,17.35
2018-11-28T10:05:51.679Z,19.87
2018-11-28T10:08:18.977Z,22.27
2018-11-28T10:10:46.403Z,21.12
2018-11-28T10:13:13.730Z,19.55
2018-11-28T10:15:41.037Z,22.45
2018-11-28T10:18:08.337Z,20.30
2018-11-28T10:20:35.617Z,18.57
2018-11-28T10:23:02.953Z,20.23
2018-11-28T10:25:30.332Z,19.65
2018-11-28T10:27:59.150Z,18.73
2018-11-28T10:30:29.225Z,22.30
2018-11-28T10:32:55.918Z,20.45
2018-11-28T10:35:23.308Z,17.98
2018-11-28T10:37:50.679Z,20.80
2018-11-28T10:40:21.906Z,20.55
2018-11-28T10:42:51.190Z,20.65
2018-11-28T10:45:20.222Z,19.73
2018-11-28T10:47:47.713Z,17.92
2018-11-28T10:50:15.230Z,22.07
2018-11-28T10:52:42.709Z,16.15
2018-11-28T10:55:13.181Z,24.20
2018-11-28T10:57:40.552Z,16.37
2018-11-28T11:00:19.033Z,18.67
2018-11-28T11:02:52.016Z,18.50
2018-11-28T11:05:27.348Z,14.73
2018-11-28T11:08:01.675Z,15.90
2018-11-28T11:10:34.830Z,17.23
2018-11-28T11:15:41.362Z,17.32
2018-11-28T11:18:10.737Z,14.98
2018-11-28T11:20:37.599Z,16.57
2018-11-28T11:23:06.511Z,14.85
2018-11-28T11:25:39.935Z,17.35
2018-11-28T11:28:07.502Z,15.58
2018-11-28T11:30:35.049Z,16.95
2018-11-28T11:33:02.577Z,14.65
2018-11-28T11:35:30.099Z,15.23
2018-11-28T11:37:57.621Z,14.98
2018-11-28T11:40:33.946Z,15.95
2018-11-28T11:43:01.474Z,15.72
2018-11-28T11:45:29.010Z,16.48
2018-11-28T11:47:56.538Z,17.65
2018-11-28T11:50:24.055Z,14.58
2018-11-28T11:52:51.542Z,14.98
2018-11-28T11:55:20.821Z,14.00
2018-11-28T11:57:49.190Z,17.75
2018-11-28T12:00:19.834Z,18.65
2018-11-28T12:03:20.248Z,13.30
2018-11-28T12:06:00.377Z,13.85
2018-11-28T12:08:28.433Z,12.20
2018-11-28T12:10:55.717Z,15.38
2018-11-28T12:13:23.025Z,12.88
2018-11-28T12:15:50.344Z,12.58
2018-11-28T12:18:17.688Z,12.47
2018-11-28T12:20:51.766Z,13.50
2018-11-28T12:23:19.080Z,17.12
2018-11-28T12:25:46.961Z,14.45
2018-11-28T12:28:14.289Z,12.37
2018-11-28T12:30:41.591Z,15.58
2018-11-28T12:33:08.886Z,14.10
2018-11-28T12:35:36.207Z,13.38
2018-11-28T12:38:08.285Z,12.95
2018-11-28T12:40:35.797Z,14.75
2018-11-28T12:43:04.643Z,13.90
2018-11-28T12:45:31.951Z,13.10
2018-11-28T12:47:59.246Z,14.45
2018-11-28T12:50:32.526Z,16.40
2018-11-28T12:53:00.677Z,13.13
2018-11-28T12:55:28.704Z,12.65
2018-11-28T12:57:56.549Z,14.53
2018-11-28T13:00:25.227Z,11.73
2018-11-28T13:02:57.588Z,14.85
2018-11-28T13:05:25.691Z,13.30
2018-11-28T13:07:53.117Z,17.20
2018-11-28T13:10:24.602Z,11.05
2018-11-28T13:12:52.062Z,11.70
2018-11-28T13:15:24.962Z,11.80
2018-11-28T13:17:52.280Z,10.85
2018-11-28T13:20:20.137Z,15.65
2018-11-28T13:22:48.579Z,12.00
2018-11-28T13:25:17.209Z,12.70
2018-11-28T13:27:51.178Z,13.70
2018-11-28T13:30:19.292Z,11.18
2018-11-28T13:32:47.321Z,11.45
2018-11-28T13:35:15.930Z,11.22
2018-11-28T13:37:44.300Z,13.75
2018-11-28T13:40:16.225Z,14.50
2018-11-28T13:42:43.541Z,13.00
2018-11-28T13:45:17.858Z,11.33
2018-11-28T13:47:46.481Z,12.90
2018-11-28T13:50:13.806Z,12.82
2018-11-28T13:52:49.645Z,11.40
2018-11-28T13:55:38.133Z,13.90
2018-11-28T13:57:48.692Z,14.47
2018-11-28T14:00:15.949Z,12.25
2018-11-28T14:02:47.694Z,11.60
2018-11-28T14:05:14.979Z,12.95
2018-11-28T14:07:42.298Z,11.22
2018-11-28T14:10:11.510Z,10.10
2018-11-28T14:12:38.843Z,11.63
2018-11-28T14:15:14.811Z,12.37
2018-11-28T14:17:43.540Z,14.58
2018-11-28T14:20:12.196Z,10.30
2018-11-28T14:22:39.750Z,13.15
2018-11-28T14:25:08.376Z,11.50
2018-11-28T14:27:41.917Z,10.30
2018-11-28T14:30:13.617Z,11.75
2018-11-28T14:32:40.937Z,10.88
2018-11-28T14:35:09.467Z,10.63
2018-11-28T14:37:36.860Z,11.05
2018-11-28T14:40:08.856Z,11.48
2018-11-28T14:42:36.210Z,12.47
2018-11-28T14:45:04.505Z,13.55
2018-11-28T14:47:31.784Z,14.15
2018-11-28T14:49:59.125Z,12.37
2018-11-28T14:52:33.055Z,10.50
2018-11-28T14:55:00.355Z,9.93
2018-11-28T14:57:27.665Z,12.85
2018-11-28T14:59:55.013Z,10.43
2018-11-28T15:02:22.292Z,12.58
2018-11-28T15:04:49.559Z,11.75
2018-11-28T15:07:22.085Z,12.98
2018-11-28T15:09:51.473Z,11.48
2018-11-28T15:12:18.818Z,13.45
2018-11-28T15:14:46.227Z,12.50
2018-11-28T15:17:14.395Z,11.12
2018-11-28T15:19:44.369Z,12.60
2018-11-28T15:22:16.242Z,11.28
2018-11-28T15:24:43.507Z,14.83
2018-11-28T15:27:10.870Z,13.60
2018-11-28T15:29:38.197Z,14.45
2018-11-28T15:34:38.049Z,12.28
2018-11-28T15:37:06.337Z,10.85
2018-11-28T15:39:34.056Z,13.08
2018-11-28T15:42:03.712Z,12.58
2018-11-28T15:44:31.074Z,13.05
2018-11-28T15:46:58.375Z,11.10
2018-11-28T15:49:30.681Z,12.50
2018-11-28T15:51:57.945Z,13.22
2018-11-28T15:54:25.305Z,12.90
2018-11-28T15:56:52.748Z,12.28
2018-11-28T15:59:20.029Z,13.80
2018-11-28T16:01:47.389Z,12.25
2018-11-28T16:04:14.769Z,14.23
2018-11-28T16:06:42.110Z,12.03
2018-11-28T16:09:15.134Z,12.40
2018-11-28T16:11:43.175Z,13.35
2018-11-28T16:14:10.570Z,12.00
2018-11-28T16:16:37.874Z,13.58
2018-11-28T16:19:05.440Z,14.43
2018-11-28T16:21:33.066Z,12.28
2018-11-28T16:24:00.357Z,11.10
2018-11-28T16:26:27.678Z,12.15
2018-11-28T16:28:54.954Z,13.88
2018-11-28T16:31:22.424Z,15.98
2018-11-28T16:33:49.781Z,11.97
2018-11-28T16:36:17.207Z,14.05
2018-11-28T16:38:44.502Z,12.63
2018-11-28T16:41:11.820Z,12.68
2018-11-28T16:43:39.325Z,12.98
2018-11-28T16:46:06.977Z,13.48
2018-11-28T16:48:34.337Z,13.55
2018-11-28T16:51:01.605Z,10.80
2018-11-28T16:53:28.881Z,11.75
2018-11-28T16:55:56.187Z,12.98
2018-11-28T16:58:23.556Z,13.58
2018-11-28T17:00:51.034Z,14.90
2018-11-28T17:03:18.376Z,15.03
2018-11-28T17:05:45.747Z,13.32
2018-11-28T17:08:13.118Z,16.12
2018-11-28T17:10:40.404Z,14.73
2018-11-28T17:13:07.726Z,14.28
2018-11-28T17:15:35.011Z,14.78
2018-11-28T17:18:02.322Z,15.48
2018-11-28T17:20:30.170Z,14.93
2018-11-28T17:22:58.216Z,14.93
2018-11-28T17:25:29.457Z,14.18
2018-11-28T17:27:56.803Z,16.70
2018-11-28T17:30:25.074Z,15.30
2018-11-28T17:32:52.408Z,18.85
2018-11-28T17:35:19.732Z,13.72
2018-11-28T17:37:47.200Z,15.83
2018-11-28T17:40:15.776Z,17.80
2018-11-28T17:42:44.692Z,16.80
2018-11-28T17:45:13.214Z,16.25
2018-11-28T17:47:40.622Z,17.23
2018-11-28T17:50:23.849Z,16.07
2018-11-28T17:52:56.627Z,18.07
2018-11-28T17:55:24.731Z,17.10
2018-11-28T17:57:52.071Z,17.90
2018-11-28T18:00:19.701Z,17.67
2018-11-28T18:02:47.261Z,13.43
2018-11-28T18:05:14.526Z,16.32
2018-11-28T18:07:41.801Z,16.23
2018-11-28T18:10:11.489Z,18.92
2018-11-28T18:12:48.981Z,15.68
2018-11-28T18:15:16.268Z,13.85
2018-11-28T18:17:43.559Z,14.63
2018-11-28T18:20:10.877Z,15.00
2018-11-28T18:22:38.340Z,15.75
2018-11-28T18:25:07.957Z,14.83
2018-11-28T18:27:35.410Z,13.93
2018-11-28T18:30:02.916Z,17.50
2018-11-28T18:32:30.197Z,14.00
2018-11-28T18:34:57.480Z,15.85
2018-11-28T18:37:24.769Z,17.50
2018-11-28T18:39:52.115Z,15.35
2018-11-28T18:42:19.430Z,17.05
2018-11-28T18:44:46.925Z,14.00
2018-11-28T18:47:15.571Z,15.13
2018-11-28T18:49:42.938Z,15.65
2018-11-28T18:52:10.269Z,13.85
2018-11-28T18:54:37.611Z,15.88
2018-11-28T18:57:05.072Z,12.85
2018-11-28T18:59:32.409Z,14.78
2018-11-28T19:01:59.703Z,14.18
2018-11-28T19:04:26.994Z,14.63
2018-11-28T19:06:54.349Z,13.48
2018-11-28T19:09:27.753Z,11.65
2018-11-28T19:11:55.041Z,16.95
2018-11-28T19:14:22.371Z,14.20
2018-11-28T19:16:52.908Z,14.03
2018-11-28T19:19:20.197Z,13.18
2018-11-28T19:21:47.597Z,14.75
2018-11-28T19:24:15.154Z,14.28
2018-11-28T19:26:42.489Z,13.58
2018-11-28T19:29:10.620Z,10.25
2018-11-28T19:31:37.918Z,12.70
2018-11-28T19:34:05.536Z,12.00
2018-11-28T19:36:32.961Z,11.65
2018-11-28T19:39:00.272Z,10.15
2018-11-28T19:41:27.686Z,11.30
2018-11-28T19:43:55.017Z,10.70
2018-11-28T19:46:22.285Z,10.78
2018-11-28T19:48:49.743Z,10.08
2018-11-28T19:51:17.037Z,9.40
2018-11-28T19:53:44.365Z,12.85
2018-11-28T19:56:11.693Z,10.13
2018-11-28T19:58:39.014Z,10.40
2018-11-28T20:01:06.690Z,9.73
2018-11-28T20:03:34.073Z,11.33
2018-11-28T20:06:01.454Z,10.03
2018-11-28T20:08:28.781Z,10.43
2018-11-28T20:10:56.160Z,10.93
2018-11-28T20:13:23.543Z,10.45
2018-11-28T20:15:51.738Z,8.78
2018-11-28T20:18:19.045Z,12.60
2018-11-28T20:20:46.522Z,10.13
2018-11-28T20:23:14.234Z,9.53
2018-11-28T20:25:41.623Z,10.68
2018-11-28T20:28:09.112Z,8.78
2018-11-28T20:30:47.401Z,9.93
2018-11-28T20:33:15.702Z,8.58
2018-11-28T20:35:44.386Z,10.80
2018-11-28T20:38:19.621Z,10.55
2018-11-28T20:40:46.546Z,11.18
2018-11-28T20:43:13.888Z,9.30
2018-11-28T20:45:41.246Z,9.58
2018-11-28T20:48:08.681Z,10.28
2018-11-28T20:50:36.127Z,8.83
2018-11-28T20:53:06.513Z,9.15
2018-11-28T20:55:33.801Z,8.98
2018-11-28T20:58:01.062Z,8.38
2018-11-28T21:00:28.421Z,7.65
2018-11-28T21:02:55.697Z,8.13
2018-11-28T21:05:22.966Z,9.30
2018-11-28T21:07:50.330Z,12.20
2018-11-28T21:10:24.061Z,8.83
2018-11-28T21:12:51.925Z,11.35
2018-11-28T21:15:19.369Z,10.28
2018-11-28T21:17:47.060Z,8.80
2018-11-28T21:20:16.365Z,8.60
2018-11-28T21:22:45.420Z,9.15
2018-11-28T21:25:12.877Z,9.45
2018-11-28T21:27:40.242Z,9.70
2018-11-28T21:30:13.677Z,9.58
2018-11-28T21:32:41.145Z,10.90
2018-11-28T21:35:13.597Z,9.25
2018-11-28T21:37:40.896Z,10.88
2018-11-28T21:40:08.821Z,10.50
2018-11-28T21:42:36.144Z,10.48
2018-11-28T21:45:04.635Z,8.40
2018-11-28T21:47:31.956Z,8.73
2018-11-28T21:49:59.261Z,8.93
2018-11-28T21:52:26.597Z,9.15
2018-11-28T21:54:53.885Z,9.45
2018-11-28T21:57:21.234Z,9.65
2018-11-28T21:59:48.569Z,10.63
2018-11-28T22:02:15.921Z,11.75
2018-11-28T22:04:43.279Z,10.75
2018-11-28T22:07:10.609Z,10.85
2018-11-28T22:09:37.882Z,11.33
2018-11-28T22:12:05.237Z,9.88
2018-11-28T22:14:32.518Z,11.08
2018-11-28T22:16:59.862Z,9.78
2018-11-28T22:19:27.217Z,10.70
2018-11-28T22:21:54.841Z,9.33
2018-11-28T22:24:22.149Z,10.05
2018-11-28T22:26:49.408Z,11.80
2018-11-28T22:29:16.735Z,10.90
2018-11-28T22:31:44.011Z,12.70
2018-11-28T22:34:11.322Z,12.10
2018-11-28T22:36:38.801Z,10.63
2018-11-28T22:39:08.112Z,11.00
2018-11-28T22:41:35.538Z,11.25
2018-11-28T22:44:02.986Z,10.88
2018-11-28T22:46:30.278Z,10.20
2018-11-28T22:48:57.591Z,10.88
2018-11-28T22:51:24.894Z,11.12
2018-11-28T22:53:52.341Z,11.57
2018-11-28T22:56:19.664Z,10.28
2018-11-28T22:58:47.259Z,10.65
2018-11-28T23:01:14.585Z,9.78
2018-11-28T23:03:41.869Z,11.70
2018-11-28T23:06:09.157Z,11.55
2018-11-28T23:08:36.788Z,9.68
2018-11-28T23:11:04.151Z,11.45
2018-11-28T23:13:31.516Z,10.18
2018-11-28T23:15:58.849Z,9.68
2018-11-28T23:18:27.301Z,9.95
2018-11-28T23:20:54.602Z,11.18
2018-11-28T23:23:21.907Z,10.78
2018-11-28T23:25:49.197Z,10.10
2018-11-28T23:28:16.462Z,9.98
2018-11-28T23:30:43.731Z,13.18
2018-11-28T23:33:15.948Z,10.63
2018-11-28T23:35:38.309Z,10.00
2018-11-28T23:38:06.790Z,10.30
2018-11-28T23:40:34.098Z,11.08
2018-11-28T23:43:01.733Z,8.75
2018-11-28T23:45:29.534Z,9.80
2018-11-28T23:47:56.882Z,8.70
2018-11-28T23:50:24.900Z,8.45
2018-11-28T23:52:53.127Z,9.10
2018-11-28T23:55:21.337Z,10.15
2018-11-28T23:57:48.869Z,8.03
